Time;durP1;ratioP1;P1;durP2;ratioP2;P2;SDS_P1;SDS_P2;PMS_P1;PMS_P2;Temp;Humidity;BMP_temperature;BMP_pressure;BME280_temperature;BME280_humidity;BME280_pressure;Samples;Min_cycle;Max_cycle;Signal;HPM_P1;HPM_P2
2020/12/25 00:00:17;;;;;;;308.38;276.98;;;;;;;;;;5055284;28;20082;-67
2020/12/25 00:02:43;;;;;;;331.48;299.30;;;;;;;;;;5047470;28;20026;-67
2020/12/25 00:05:09;;;;;;;305.83;274.60;;;;;;;;;;5055145;28;20021;-67
2020/12/25 00:07:35;;;;;;;297.67;266.67;;;;;;;;;;5053332;28;20036;-68
2020/12/25 00:10:01;;;;;;;333.23;300.60;;;;;;;;;;5055171;28;20032;-66
2020/12/25 00:12:27;;;;;;;330.55;298.30;;;;;;;;;;5048722;28;20029;-68
2020/12/25 00:14:53;;;;;;;824.67;739.53;;;;;;;;;;5047495;28;20047;-66
2020/12/25 00:17:19;;;;;;;349.13;316.10;;;;;;;;;;5053167;28;20037;-68
2020/12/25 00:19:45;;;;;;;1972.25;999.90;;;;;;;;;;5053951;28;20075;-68
2020/12/25 00:22:11;;;;;;;409.83;373.92;;;;;;;;;;5051939;28;20056;-68
2020/12/25 00:24:37;;;;;;;378.23;344.17;;;;;;;;;;5054532;28;20025;-67
2020/12/25 00:27:03;;;;;;;365.10;331.48;;;;;;;;;;5052630;28;20036;-68
2020/12/25 00:29:29;;;;;;;1495.90;999.90;;;;;;;;;;5048852;28;20113;-68
2020/12/25 00:31:55;;;;;;;376.95;342.60;;;;;;;;;;5053046;28;20134;-67
2020/12/25 00:34:21;;;;;;;883.63;789.95;;;;;;;;;;5054775;28;20021;-68
2020/12/25 00:36:47;;;;;;;372.02;338.08;;;;;;;;;;5052937;28;20063;-65
2020/12/25 00:39:15;;;;;;;372.98;339.05;;;;;;;;;;5054275;28;20032;-68
2020/12/25 00:41:45;;;;;;;1091.07;967.33;;;;;;;;;;5047746;28;20028;-65
2020/12/25 00:44:11;;;;;;;368.70;334.85;;;;;;;;;;5053729;28;20025;-67
2020/12/25 00:46:37;;;;;;;366.85;333.13;;;;;;;;;;5054421;28;20108;-64
2020/12/25 00:49:04;;;;;;;377.17;343.17;;;;;;;;;;5052324;28;20397;-68
2020/12/25 00:51:30;;;;;;;321.42;289.75;;;;;;;;;;5054572;28;20029;-68
2020/12/25 00:53:56;;;;;;;342.83;310.27;;;;;;;;;;5045325;28;20064;-67
2020/12/25 00:56:21;;;;;;;364.80;331.17;;;;;;;;;;5042135;28;20095;-69
2020/12/25 00:58:48;;;;;;;354.10;321.15;;;;;;;;;;5051062;28;20033;-68
2020/12/25 01:01:14;;;;;;;376.98;342.85;;;;;;;;;;5054314;28;20049;-68
2020/12/25 01:03:41;;;;;;;337.95;305.50;;;;;;;;;;5050571;28;20792;-65
2020/12/25 01:06:13;;;;;;;332.55;300.67;;;;;;;;;;5054376;28;20037;-69
2020/12/25 01:08:39;;;;;;;371.90;338.42;;;;;;;;;;5052745;28;20043;-68
2020/12/25 01:11:06;;;;;;;768.88;689.90;;;;;;;;;;5052986;28;20033;-68
2020/12/25 01:13:33;;;;;;;346.37;313.87;;;;;;;;;;5045336;28;20052;-68
2020/12/25 01:16:03;;;;;;;335.80;303.45;;;;;;;;;;5053386;28;20291;-67
2020/12/25 01:18:29;;;;;;;371.92;337.98;;;;;;;;;;5051047;28;20029;-68
2020/12/25 01:20:55;;;;;;;346.60;313.67;;;;;;;;;;5053395;28;20504;-68
2020/12/25 01:23:21;;;;;;;388.33;353.67;;;;;;;;;;5033716;28;20972;-68
2020/12/25 01:25:47;;;;;;;937.38;839.92;;;;;;;;;;5034421;28;20042;-65
2020/12/25 01:28:13;;;;;;;359.27;326.00;;;;;;;;;;5033038;28;20029;-63
2020/12/25 01:30:39;;;;;;;376.67;342.33;;;;;;;;;;5033709;28;20029;-65
2020/12/25 01:33:05;;;;;;;1998.82;999.90;;;;;;;;;;5035227;28;20852;-65
2020/12/25 01:35:31;;;;;;;373.73;339.67;;;;;;;;;;5034590;28;20041;-66
2020/12/25 01:37:57;;;;;;;394.23;359.63;;;;;;;;;;5033705;28;20035;-65
2020/12/25 01:40:23;;;;;;;361.10;327.75;;;;;;;;;;5032330;28;20033;-64
2020/12/25 01:42:49;;;;;;;341.50;308.90;;;;;;;;;;5034213;28;20025;-67
2020/12/25 01:45:15;;;;;;;360.58;327.20;;;;;;;;;;5033547;28;20033;-64
2020/12/25 01:47:41;;;;;;;317.92;285.92;;;;;;;;;;5033251;28;20036;-64
2020/12/25 01:50:08;;;;;;;349.98;316.85;;;;;;;;;;5033436;28;20029;-67
2020/12/25 01:52:34;;;;;;;356.83;323.67;;;;;;;;;;5032784;28;20568;-63
2020/12/25 01:55:01;;;;;;;329.10;296.90;;;;;;;;;;5032790;28;20489;-65
2020/12/25 01:57:29;;;;;;;1995.50;999.90;;;;;;;;;;5033200;28;20048;-64
2020/12/25 01:59:56;;;;;;;545.60;492.38;;;;;;;;;;5032488;28;20033;-65
2020/12/25 02:02:24;;;;;;;363.65;330.02;;;;;;;;;;5032596;28;20068;-64
2020/12/25 02:04:50;;;;;;;373.48;339.17;;;;;;;;;;5032389;28;20477;-63
2020/12/25 02:07:16;;;;;;;343.88;311.20;;;;;;;;;;5032500;28;21236;-64
2020/12/25 02:09:42;;;;;;;1993.68;999.90;;;;;;;;;;5032740;28;20037;-64
2020/12/25 02:12:08;;;;;;;359.60;325.85;;;;;;;;;;5033832;28;20036;-64
2020/12/25 02:14:35;;;;;;;374.50;340.75;;;;;;;;;;5032686;28;20044;-64
2020/12/25 02:17:01;;;;;;;319.65;288.15;;;;;;;;;;5032788;28;20045;-64
2020/12/25 02:19:27;;;;;;;341.95;309.25;;;;;;;;;;5032636;28;20040;-65
2020/12/25 02:21:53;;;;;;;693.60;622.95;;;;;;;;;;5033094;28;20525;-68
2020/12/25 02:24:19;;;;;;;1999.30;999.90;;;;;;;;;;5032044;28;20028;-68
2020/12/25 02:26:45;;;;;;;501.15;450.92;;;;;;;;;;5033226;28;20037;-65
2020/12/25 02:29:11;;;;;;;389.75;355.05;;;;;;;;;;5033371;28;20106;-64
2020/12/25 02:31:37;;;;;;;1998.38;999.90;;;;;;;;;;5032098;28;20386;-63
2020/12/25 02:34:03;;;;;;;384.58;347.88;;;;;;;;;;5032862;28;20039;-63
2020/12/25 02:36:30;;;;;;;335.77;303.50;;;;;;;;;;5032436;28;22537;-63
2020/12/25 02:38:56;;;;;;;353.40;320.63;;;;;;;;;;5033404;28;20025;-64
2020/12/25 02:41:22;;;;;;;1998.03;999.90;;;;;;;;;;5033295;28;20388;-64
2020/12/25 02:43:49;;;;;;;363.75;330.10;;;;;;;;;;5031457;28;20033;-64
2020/12/25 02:46:15;;;;;;;1998.25;999.90;;;;;;;;;;5048574;28;20025;-63
2020/12/25 02:48:41;;;;;;;1989.65;999.90;;;;;;;;;;5031953;28;20053;-66
2020/12/25 02:51:07;;;;;;;530.53;476.35;;;;;;;;;;5033110;28;20033;-66
2020/12/25 02:53:33;;;;;;;1999.90;999.90;;;;;;;;;;5032235;28;20025;-63
2020/12/25 02:55:59;;;;;;;371.73;337.10;;;;;;;;;;5032498;28;20055;-63
2020/12/25 02:58:25;;;;;;;355.33;322.52;;;;;;;;;;5032643;28;20028;-63
2020/12/25 03:00:51;;;;;;;319.02;287.38;;;;;;;;;;5032443;28;20033;-64
2020/12/25 03:03:17;;;;;;;334.83;302.80;;;;;;;;;;5033348;28;20037;-63
2020/12/25 03:05:43;;;;;;;329.38;297.40;;;;;;;;;;5031503;28;20105;-63
2020/12/25 03:08:09;;;;;;;332.80;301.17;;;;;;;;;;5040626;28;20029;-67
2020/12/25 03:10:35;;;;;;;334.02;302.05;;;;;;;;;;5047982;28;20065;-68
2020/12/25 03:13:01;;;;;;;366.95;333.90;;;;;;;;;;5063252;28;20044;-68
2020/12/25 03:15:27;;;;;;;1494.15;999.90;;;;;;;;;;5051978;28;20040;-67
2020/12/25 03:17:53;;;;;;;365.02;332.08;;;;;;;;;;5050344;28;20025;-67
2020/12/25 03:20:19;;;;;;;320.85;289.23;;;;;;;;;;5050235;28;20366;-67
2020/12/25 03:22:45;;;;;;;372.33;339.02;;;;;;;;;;5050129;28;20025;-68
2020/12/25 03:25:11;;;;;;;324.15;292.58;;;;;;;;;;5051021;28;20461;-67
2020/12/25 03:27:37;;;;;;;366.33;333.38;;;;;;;;;;5049132;28;20037;-67
2020/12/25 03:30:04;;;;;;;1492.55;999.90;;;;;;;;;;5052093;28;20052;-68
2020/12/25 03:32:30;;;;;;;1994.82;999.90;;;;;;;;;;5047327;28;20040;-69
2020/12/25 03:34:56;;;;;;;1499.03;999.90;;;;;;;;;;5051693;28;20590;-68
2020/12/25 03:37:22;;;;;;;345.20;312.85;;;;;;;;;;5050021;28;20063;-67
2020/12/25 03:39:48;;;;;;;1999.25;999.90;;;;;;;;;;5039192;28;20454;-68
2020/12/25 03:42:15;;;;;;;1498.35;999.90;;;;;;;;;;5037775;28;20032;-68
2020/12/25 03:44:41;;;;;;;334.17;302.33;;;;;;;;;;5045421;28;20029;-68
2020/12/25 03:47:07;;;;;;;352.83;320.02;;;;;;;;;;5049787;28;20079;-67
2020/12/25 03:49:33;;;;;;;1502.32;999.90;;;;;;;;;;5051387;28;20029;-68
2020/12/25 03:51:59;;;;;;;342.10;309.73;;;;;;;;;;5046359;28;20029;-68
2020/12/25 03:54:25;;;;;;;382.00;348.15;;;;;;;;;;5050064;28;20041;-68
2020/12/25 03:56:51;;;;;;;351.02;318.33;;;;;;;;;;5046697;28;20056;-69
2020/12/25 03:59:17;;;;;;;1503.47;999.90;;;;;;;;;;5037963;28;20079;-67
2020/12/25 04:01:43;;;;;;;345.17;312.83;;;;;;;;;;5037925;28;20084;-64
2020/12/25 04:04:09;;;;;;;315.23;284.33;;;;;;;;;;5047778;28;20025;-68
2020/12/25 04:06:35;;;;;;;358.38;325.90;;;;;;;;;;5046440;28;20033;-68
2020/12/25 04:09:01;;;;;;;1994.68;999.90;;;;;;;;;;5045070;28;20063;-68
2020/12/25 04:11:27;;;;;;;1979.50;999.90;;;;;;;;;;5051379;28;20033;-68
2020/12/25 04:13:53;;;;;;;360.58;327.60;;;;;;;;;;5047439;28;20545;-68
2020/12/25 04:16:21;;;;;;;312.70;281.70;;;;;;;;;;5052004;28;20120;-69
2020/12/25 04:18:46;;;;;;;;;;;;;;;;;;5049522;28;20060;-68
2020/12/25 04:21:12;;;;;;;320.98;289.92;;;;;;;;;;5053426;28;20280;-64
2020/12/25 04:23:38;;;;;;;349.40;317.02;;;;;;;;;;5050952;28;20037;-68
2020/12/25 04:26:04;;;;;;;342.10;310.30;;;;;;;;;;5055048;28;20064;-69
2020/12/25 04:28:30;;;;;;;1994.85;999.90;;;;;;;;;;5052481;28;20029;-69
2020/12/25 04:30:56;;;;;;;1991.50;999.90;;;;;;;;;;5054379;28;20036;-68
2020/12/25 04:33:22;;;;;;;558.60;500.65;;;;;;;;;;5053069;28;20108;-69
2020/12/25 04:35:48;;;;;;;347.00;314.67;;;;;;;;;;5053068;28;20436;-68
2020/12/25 04:38:14;;;;;;;1050.15;938.92;;;;;;;;;;5052701;28;20037;-69
2020/12/25 04:40:42;;;;;;;1510.28;999.90;;;;;;;;;;5052394;28;20091;-69
2020/12/25 04:43:08;;;;;;;;;;;;;;;;;;5052673;28;20111;-68
2020/12/25 04:45:34;;;;;;;651.95;583.78;;;;;;;;;;5053113;28;20342;-69
2020/12/25 04:48:00;;;;;;;1999.60;999.90;;;;;;;;;;5052524;28;20029;-68
2020/12/25 04:50:27;;;;;;;331.60;299.77;;;;;;;;;;5053869;28;20108;-68
2020/12/25 04:52:53;;;;;;;369.13;336.05;;;;;;;;;;5053183;28;20271;-69
2020/12/25 04:55:19;;;;;;;328.55;296.73;;;;;;;;;;5053330;28;20041;-68
2020/12/25 04:57:45;;;;;;;351.15;318.65;;;;;;;;;;5052150;28;20029;-69
2020/12/25 05:00:17;;;;;;;968.22;863.35;;;;;;;;;;5053863;28;20029;-68
2020/12/25 05:02:46;;;;;;;355.38;322.95;;;;;;;;;;5046536;28;20473;-68
2020/12/25 05:05:12;;;;;;;583.50;522.50;;;;;;;;;;5049792;28;20113;-68
2020/12/25 05:07:38;;;;;;;369.40;336.42;;;;;;;;;;5050498;28;20059;-69
2020/12/25 05:10:08;;;;;;;1506.40;999.90;;;;;;;;;;5053369;28;20064;-69
2020/12/25 05:12:35;;;;;;;337.90;306.08;;;;;;;;;;5051547;28;20492;-69
2020/12/25 05:15:06;;;;;;;335.70;303.67;;;;;;;;;;5054279;28;20401;-70
2020/12/25 05:17:32;;;;;;;315.58;284.48;;;;;;;;;;5052050;28;20500;-70
2020/12/25 05:19:58;;;;;;;919.38;820.35;;;;;;;;;;5051424;28;20029;-70
2020/12/25 05:22:25;;;;;;;1507.10;999.90;;;;;;;;;;5051403;28;20104;-68
2020/12/25 05:24:51;;;;;;;352.52;319.98;;;;;;;;;;5052886;28;20049;-69
2020/12/25 05:27:17;;;;;;;326.77;295.58;;;;;;;;;;5050581;28;20061;-70
2020/12/25 05:29:43;;;;;;;309.20;278.55;;;;;;;;;;5053820;28;20096;-69
2020/12/25 05:32:09;;;;;;;310.17;279.25;;;;;;;;;;5051357;28;20057;-70
2020/12/25 05:34:35;;;;;;;331.55;300.15;;;;;;;;;;5053895;28;20040;-69
2020/12/25 05:37:03;;;;;;;310.23;279.38;;;;;;;;;;5050640;28;20507;-69
2020/12/25 05:39:31;;;;;;;354.13;321.30;;;;;;;;;;5053559;28;20465;-69
2020/12/25 05:41:58;;;;;;;1995.00;999.90;;;;;;;;;;5046892;28;20068;-69
2020/12/25 05:44:25;;;;;;;1199.55;999.90;;;;;;;;;;5043575;28;20017;-70
2020/12/25 05:46:51;;;;;;;291.50;261.40;;;;;;;;;;5051470;28;20028;-69
2020/12/25 05:49:20;;;;;;;289.88;260.08;;;;;;;;;;5052957;28;20033;-70
2020/12/25 05:51:49;;;;;;;345.35;313.23;;;;;;;;;;5050796;28;20028;-68
2020/12/25 05:54:26;;;;;;;407.63;367.25;;;;;;;;;;5052043;28;20489;-70
2020/12/25 05:56:55;;;;;;;327.97;296.17;;;;;;;;;;5044617;28;20041;-65
2020/12/25 05:59:23;;;;;;;329.38;297.63;;;;;;;;;;5047256;28;20278;-70
2020/12/25 06:01:49;;;;;;;323.58;292.45;;;;;;;;;;5046209;28;20033;-69
2020/12/25 06:04:15;;;;;;;1499.68;999.90;;;;;;;;;;5048529;28;20029;-70
2020/12/25 06:06:42;;;;;;;330.85;299.23;;;;;;;;;;5048902;28;20431;-69
2020/12/25 06:09:09;;;;;;;344.67;312.58;;;;;;;;;;5048719;28;20163;-70
2020/12/25 06:11:35;;;;;;;336.35;304.73;;;;;;;;;;5052556;28;20024;-70
2020/12/25 06:14:01;;;;;;;1301.35;999.90;;;;;;;;;;5040579;28;20033;-70
2020/12/25 06:16:28;;;;;;;304.67;274.08;;;;;;;;;;5052908;28;20493;-70
2020/12/25 06:19:09;;;;;;;322.15;290.92;;;;;;;;;;5040997;28;20474;-67
2020/12/25 06:21:57;;;;;;;339.63;307.88;;;;;;;;;;5049766;28;20037;-70
2020/12/25 06:24:26;;;;;;;1506.53;999.90;;;;;;;;;;5051611;28;20072;-68
2020/12/25 06:26:58;;;;;;;353.15;320.67;;;;;;;;;;5048690;28;20037;-67
2020/12/25 06:29:25;;;;;;;581.78;524.53;;;;;;;;;;5052676;28;20021;-69
2020/12/25 06:31:53;;;;;;;1999.90;999.90;;;;;;;;;;5050347;28;20040;-65
2020/12/25 06:34:20;;;;;;;341.52;309.35;;;;;;;;;;5050455;28;20029;-69
2020/12/25 06:36:47;;;;;;;326.48;294.73;;;;;;;;;;5046907;28;20036;-65
2020/12/25 06:39:14;;;;;;;1999.90;999.90;;;;;;;;;;5048461;28;20100;-70
2020/12/25 06:41:40;;;;;;;318.85;287.30;;;;;;;;;;5047287;28;20029;-65
2020/12/25 06:44:17;;;;;;;370.30;337.33;;;;;;;;;;5049577;28;20047;-70
2020/12/25 06:46:50;;;;;;;329.13;297.67;;;;;;;;;;5049241;28;20035;-65
2020/12/25 06:49:16;;;;;;;339.63;307.48;;;;;;;;;;5049424;28;20040;-70
2020/12/25 06:51:43;;;;;;;1999.90;999.90;;;;;;;;;;5050963;28;20428;-65
2020/12/25 06:54:19;;;;;;;328.45;296.75;;;;;;;;;;5042167;28;20140;-70
2020/12/25 06:56:47;;;;;;;381.20;347.40;;;;;;;;;;5032100;28;20041;-67
2020/12/25 06:59:14;;;;;;;878.92;785.47;;;;;;;;;;5051354;28;20035;-69
2020/12/25 07:01:42;;;;;;;370.25;337.02;;;;;;;;;;5050824;28;20032;-68
2020/12/25 07:04:22;;;;;;;329.02;297.30;;;;;;;;;;5052013;28;20117;-70
2020/12/25 07:06:51;;;;;;;929.95;830.30;;;;;;;;;;5048581;28;20036;-65
2020/12/25 07:09:17;;;;;;;352.73;320.05;;;;;;;;;;5045838;28;20079;-70
2020/12/25 07:11:43;;;;;;;343.48;311.02;;;;;;;;;;5050487;28;20072;-65
2020/12/25 07:14:12;;;;;;;342.52;310.60;;;;;;;;;;5052242;28;20025;-69
2020/12/25 07:16:39;;;;;;;336.25;304.40;;;;;;;;;;5051065;28;20082;-64
2020/12/25 07:19:05;;;;;;;304.10;273.40;;;;;;;;;;5050734;28;20032;-70
2020/12/25 07:21:31;;;;;;;356.88;324.25;;;;;;;;;;5051498;28;20036;-70
2020/12/25 07:23:57;;;;;;;356.48;323.73;;;;;;;;;;5049942;28;20033;-68
2020/12/25 07:26:23;;;;;;;344.15;312.05;;;;;;;;;;5051872;28;20040;-68
2020/12/25 07:28:50;;;;;;;1503.25;999.90;;;;;;;;;;5050342;28;20021;-69
2020/12/25 07:31:16;;;;;;;334.45;302.83;;;;;;;;;;5051470;28;20389;-69
2020/12/25 07:33:42;;;;;;;346.02;313.30;;;;;;;;;;5048335;28;20048;-64
2020/12/25 07:36:12;;;;;;;1110.88;973.03;;;;;;;;;;5051568;28;20037;-68
2020/12/25 07:38:38;;;;;;;1999.90;999.90;;;;;;;;;;5049671;28;20029;-70
2020/12/25 07:41:04;;;;;;;356.25;323.40;;;;;;;;;;5050763;28;20543;-70
2020/12/25 07:43:30;;;;;;;320.58;289.35;;;;;;;;;;5045630;28;20381;-69
2020/12/25 07:45:56;;;;;;;1999.90;999.90;;;;;;;;;;5051886;28;20026;-70
2020/12/25 07:48:22;;;;;;;353.60;320.85;;;;;;;;;;5037143;28;20103;-69
2020/12/25 07:50:48;;;;;;;326.05;294.63;;;;;;;;;;5048483;28;20030;-69
2020/12/25 07:53:16;;;;;;;1502.60;999.90;;;;;;;;;;5043085;28;20032;-70
2020/12/25 07:55:47;;;;;;;325.60;294.20;;;;;;;;;;5051559;28;20039;-70
2020/12/25 07:58:14;;;;;;;347.98;315.55;;;;;;;;;;5046699;28;20055;-69
2020/12/25 08:00:40;;;;;;;335.58;303.40;;;;;;;;;;5055391;28;20062;-69
2020/12/25 08:03:07;;;;;;;345.17;313.13;;;;;;;;;;5047667;28;20061;-69
2020/12/25 08:05:33;;;;;;;299.55;269.30;;;;;;;;;;5050656;28;20029;-70
2020/12/25 08:08:00;;;;;;;289.67;259.55;;;;;;;;;;5045467;28;20068;-69
2020/12/25 08:10:26;;;;;;;293.15;262.92;;;;;;;;;;5050206;28;20024;-69
2020/12/25 08:12:55;;;;;;;284.30;254.70;;;;;;;;;;5046841;28;20037;-69
2020/12/25 08:15:21;;;;;;;313.63;282.60;;;;;;;;;;5051402;28;20039;-69
2020/12/25 08:17:48;;;;;;;359.75;327.20;;;;;;;;;;5051571;28;20037;-68
2020/12/25 08:20:14;;;;;;;305.30;274.63;;;;;;;;;;5053074;28;20025;-69
2020/12/25 08:22:41;;;;;;;1989.82;999.90;;;;;;;;;;5052697;28;20051;-70
2020/12/25 08:25:07;;;;;;;302.63;272.08;;;;;;;;;;5054143;28;20124;-69
2020/12/25 08:27:33;;;;;;;274.85;245.30;;;;;;;;;;5051280;28;20492;-69
2020/12/25 08:30:04;;;;;;;305.13;274.85;;;;;;;;;;5055012;28;20052;-69
2020/12/25 08:32:32;;;;;;;308.65;278.02;;;;;;;;;;5051708;28;20382;-69
2020/12/25 08:35:08;;;;;;;331.77;300.23;;;;;;;;;;5054383;28;20462;-68
2020/12/25 08:37:34;;;;;;;309.70;279.08;;;;;;;;;;5051748;28;20114;-69
2020/12/25 08:40:14;;;;;;;274.90;245.60;;;;;;;;;;5053844;28;20422;-68
2020/12/25 08:42:40;;;;;;;268.48;239.50;;;;;;;;;;5051215;28;20040;-68
2020/12/25 08:45:06;;;;;;;316.23;285.55;;;;;;;;;;5051395;28;20040;-70
2020/12/25 08:47:32;;;;;;;343.58;311.35;;;;;;;;;;5051507;28;20036;-69
2020/12/25 08:49:58;;;;;;;314.88;284.00;;;;;;;;;;5053353;28;20064;-69
2020/12/25 08:52:24;;;;;;;298.63;268.25;;;;;;;;;;5052042;28;20028;-69
2020/12/25 08:55:00;;;;;;;286.05;256.33;;;;;;;;;;5054333;28;20444;-69
2020/12/25 08:57:27;;;;;;;332.52;300.73;;;;;;;;;;5051434;28;20029;-69
2020/12/25 09:00:00;;;;;;;316.93;286.10;;;;;;;;;;5053507;28;20485;-68
2020/12/25 09:02:26;;;;;;;344.30;312.38;;;;;;;;;;5051650;28;20283;-68
2020/12/25 09:04:52;;;;;;;318.00;286.95;;;;;;;;;;5054092;28;20029;-69
2020/12/25 09:07:18;;;;;;;278.52;249.05;;;;;;;;;;5051852;28;20443;-69
2020/12/25 09:09:44;;;;;;;1999.90;999.90;;;;;;;;;;5053415;28;20040;-68
2020/12/25 09:12:11;;;;;;;353.13;320.45;;;;;;;;;;5052257;28;20025;-65
2020/12/25 09:14:37;;;;;;;1999.90;999.90;;;;;;;;;;5054032;28;20040;-69
2020/12/25 09:17:03;;;;;;;1995.82;999.90;;;;;;;;;;5051072;28;20462;-68
2020/12/25 09:19:29;;;;;;;1347.97;999.90;;;;;;;;;;5053660;28;20036;-69
2020/12/25 09:21:55;;;;;;;363.60;330.55;;;;;;;;;;5050456;28;20025;-69
2020/12/25 09:24:21;;;;;;;339.90;307.92;;;;;;;;;;5053392;28;20072;-68
2020/12/25 09:26:50;;;;;;;332.20;300.48;;;;;;;;;;5051455;28;20060;-64
2020/12/25 09:29:17;;;;;;;1986.60;999.90;;;;;;;;;;5050041;28;20017;-68
2020/12/25 09:31:44;;;;;;;353.33;320.52;;;;;;;;;;5051075;28;20044;-64
2020/12/25 09:34:10;;;;;;;314.33;283.20;;;;;;;;;;5053176;28;20048;-69
2020/12/25 09:36:36;;;;;;;321.85;290.65;;;;;;;;;;5051919;28;20039;-68
2020/12/25 09:39:02;;;;;;;557.05;498.42;;;;;;;;;;5046640;28;20040;-69
2020/12/25 09:41:28;;;;;;;347.83;315.02;;;;;;;;;;5036263;28;20122;-69
2020/12/25 09:43:54;;;;;;;1504.70;999.90;;;;;;;;;;5046859;28;20068;-69
2020/12/25 09:46:20;;;;;;;362.83;329.95;;;;;;;;;;5046608;28;20032;-69
2020/12/25 09:48:46;;;;;;;336.02;303.75;;;;;;;;;;5043209;28;20033;-67
2020/12/25 09:51:12;;;;;;;480.10;431.38;;;;;;;;;;5044258;28;20548;-67
2020/12/25 09:53:38;;;;;;;332.35;300.67;;;;;;;;;;5046068;28;20036;-67
2020/12/25 09:56:04;;;;;;;1999.90;999.90;;;;;;;;;;5050197;28;20041;-68
2020/12/25 09:58:30;;;;;;;350.77;317.88;;;;;;;;;;5044521;28;20040;-69
2020/12/25 10:00:56;;;;;;;305.40;274.58;;;;;;;;;;5045742;28;20029;-68
2020/12/25 10:03:24;;;;;;;337.10;305.15;;;;;;;;;;5043086;28;20500;-68
2020/12/25 10:05:50;;;;;;;1999.57;999.90;;;;;;;;;;5042348;28;20060;-66
2020/12/25 10:08:16;;;;;;;1999.32;999.90;;;;;;;;;;5033752;28;20069;-68
2020/12/25 10:10:42;;;;;;;347.90;315.13;;;;;;;;;;5046544;28;20034;-65
2020/12/25 10:13:08;;;;;;;354.55;322.08;;;;;;;;;;5047751;28;20082;-66
2020/12/25 10:15:35;;;;;;;1988.25;999.90;;;;;;;;;;5051475;28;20109;-65
2020/12/25 10:18:01;;;;;;;366.10;332.83;;;;;;;;;;5039961;28;20490;-67
2020/12/25 10:20:27;;;;;;;332.23;300.38;;;;;;;;;;5052116;28;20031;-67
2020/12/25 10:22:53;;;;;;;329.58;297.67;;;;;;;;;;5041761;28;20061;-67
2020/12/25 10:25:19;;;;;;;342.58;310.30;;;;;;;;;;5052225;28;20048;-68
2020/12/25 10:27:45;;;;;;;730.85;652.80;;;;;;;;;;5044387;28;20037;-67
2020/12/25 10:30:11;;;;;;;333.88;301.88;;;;;;;;;;5049590;28;20029;-65
2020/12/25 10:32:38;;;;;;;366.35;332.98;;;;;;;;;;5043835;28;20040;-66
2020/12/25 10:35:04;;;;;;;322.67;291.23;;;;;;;;;;5050154;28;20075;-67
2020/12/25 10:37:30;;;;;;;357.70;324.50;;;;;;;;;;5047023;28;20031;-68
2020/12/25 10:39:57;;;;;;;345.20;312.55;;;;;;;;;;5050999;28;20381;-65
2020/12/25 10:42:23;;;;;;;369.05;335.73;;;;;;;;;;5045882;28;20550;-68
2020/12/25 10:44:49;;;;;;;337.67;305.35;;;;;;;;;;5045223;28;20362;-67
2020/12/25 10:47:15;;;;;;;1999.90;999.90;;;;;;;;;;5043096;28;20477;-68
2020/12/25 10:49:41;;;;;;;366.00;332.30;;;;;;;;;;5045220;28;20044;-68
2020/12/25 10:52:07;;;;;;;351.60;318.80;;;;;;;;;;5049400;28;20296;-68
2020/12/25 10:54:33;;;;;;;1999.90;999.90;;;;;;;;;;5048456;28;20036;-68
2020/12/25 10:56:59;;;;;;;301.30;270.25;;;;;;;;;;5044612;28;20045;-65
2020/12/25 10:59:25;;;;;;;318.13;286.77;;;;;;;;;;5037105;28;20032;-68
2020/12/25 11:01:51;;;;;;;313.17;281.95;;;;;;;;;;5044535;28;20397;-67
2020/12/25 11:04:17;;;;;;;359.13;326.02;;;;;;;;;;5049832;28;20110;-69
2020/12/25 11:06:44;;;;;;;1122.07;982.72;;;;;;;;;;5046069;28;20478;-65
2020/12/25 11:09:10;;;;;;;350.88;318.10;;;;;;;;;;5033702;28;20026;-68
2020/12/25 11:11:38;;;;;;;366.13;333.05;;;;;;;;;;5042904;28;20025;-65
2020/12/25 11:14:04;;;;;;;;;;;;;;;;;;5046039;28;20025;-68
2020/12/25 11:16:31;;;;;;;421.60;377.65;;;;;;;;;;5048282;28;19916;-64
2020/12/25 11:19:00;;;;;;;315.38;284.42;;;;;;;;;;5039152;28;20385;-69
2020/12/25 11:21:27;;;;;;;366.48;333.52;;;;;;;;;;5043467;28;20052;-68
2020/12/25 11:23:54;;;;;;;315.50;284.17;;;;;;;;;;5048047;28;20159;-69
2020/12/25 11:26:24;;;;;;;336.85;304.63;;;;;;;;;;5046326;28;20287;-68
2020/12/25 11:28:50;;;;;;;314.73;283.67;;;;;;;;;;5046025;28;20021;-68
2020/12/25 11:31:18;;;;;;;1982.10;999.90;;;;;;;;;;5052773;28;20017;-68
2020/12/25 11:33:44;;;;;;;330.50;298.27;;;;;;;;;;5053068;28;20036;-69
2020/12/25 11:36:14;;;;;;;323.30;291.73;;;;;;;;;;5054731;28;20179;-68
2020/12/25 11:38:40;;;;;;;336.58;304.38;;;;;;;;;;5047602;28;20068;-67
2020/12/25 11:41:12;;;;;;;321.77;290.15;;;;;;;;;;5048628;28;20025;-69
2020/12/25 11:43:39;;;;;;;344.67;311.92;;;;;;;;;;5043284;28;20103;-69
2020/12/25 11:46:06;;;;;;;354.50;321.55;;;;;;;;;;5049382;28;20389;-68
2020/12/25 11:48:32;;;;;;;1999.90;999.90;;;;;;;;;;5047404;28;20017;-68
2020/12/25 11:50:58;;;;;;;334.70;302.35;;;;;;;;;;5054685;28;20077;-68
2020/12/25 11:53:24;;;;;;;296.55;265.80;;;;;;;;;;5052527;28;20063;-68
2020/12/25 11:55:50;;;;;;;383.63;349.50;;;;;;;;;;5052809;28;20048;-68
2020/12/25 11:58:16;;;;;;;355.83;323.00;;;;;;;;;;5045033;28;20095;-68
2020/12/25 12:00:42;;;;;;;324.20;292.33;;;;;;;;;;5055327;28;20162;-68
2020/12/25 12:03:09;;;;;;;350.08;317.27;;;;;;;;;;5047999;28;20048;-67
2020/12/25 12:05:35;;;;;;;345.38;312.95;;;;;;;;;;5051781;28;20021;-68
2020/12/25 12:08:01;;;;;;;347.92;315.30;;;;;;;;;;5048983;28;20032;-68
2020/12/25 12:10:27;;;;;;;367.42;333.73;;;;;;;;;;5053539;28;20090;-68
2020/12/25 12:12:53;;;;;;;346.00;313.50;;;;;;;;;;5052236;28;20033;-68
2020/12/25 12:15:19;;;;;;;333.08;300.80;;;;;;;;;;5053281;28;20033;-68
2020/12/25 12:17:45;;;;;;;372.67;339.05;;;;;;;;;;5051525;28;20363;-68
2020/12/25 12:20:11;;;;;;;311.15;279.80;;;;;;;;;;5051925;28;20063;-68
2020/12/25 12:22:37;;;;;;;343.33;310.67;;;;;;;;;;5050185;28;20033;-68
2020/12/25 12:25:07;;;;;;;563.33;506.70;;;;;;;;;;5054389;28;20059;-68
2020/12/25 12:27:33;;;;;;;390.98;356.27;;;;;;;;;;5052277;28;20385;-68
2020/12/25 12:30:01;;;;;;;347.88;315.20;;;;;;;;;;5052026;28;20469;-68
2020/12/25 12:32:27;;;;;;;312.08;280.90;;;;;;;;;;5051898;28;20091;-68
2020/12/25 12:34:53;;;;;;;357.08;324.20;;;;;;;;;;5053117;28;20457;-68
2020/12/25 12:37:19;;;;;;;331.60;299.35;;;;;;;;;;5051090;28;20086;-68
2020/12/25 12:39:45;;;;;;;328.73;296.60;;;;;;;;;;5053501;28;20078;-65
2020/12/25 12:42:11;;;;;;;377.17;343.60;;;;;;;;;;5047105;28;20485;-63
2020/12/25 12:44:37;;;;;;;334.23;302.33;;;;;;;;;;5053460;28;20509;-68
2020/12/25 12:47:03;;;;;;;336.83;304.55;;;;;;;;;;5052489;28;20055;-69
2020/12/25 12:49:29;;;;;;;331.05;299.23;;;;;;;;;;5053132;28;20021;-68
2020/12/25 12:51:55;;;;;;;330.33;298.38;;;;;;;;;;5052045;28;20603;-68
2020/12/25 12:54:21;;;;;;;316.63;284.67;;;;;;;;;;5049967;28;20039;-67
2020/12/25 12:56:47;;;;;;;351.38;318.27;;;;;;;;;;5032772;28;20052;-63
2020/12/25 12:59:13;;;;;;;369.42;335.52;;;;;;;;;;5035400;28;20025;-64
2020/12/25 13:01:39;;;;;;;346.73;313.48;;;;;;;;;;5033636;28;20385;-66
2020/12/25 13:04:05;;;;;;;341.23;308.73;;;;;;;;;;5033432;28;20017;-64
2020/12/25 13:06:31;;;;;;;307.00;275.52;;;;;;;;;;5033348;28;20041;-65
2020/12/25 13:08:57;;;;;;;356.83;323.35;;;;;;;;;;5033586;28;20389;-65
2020/12/25 13:11:24;;;;;;;375.77;341.60;;;;;;;;;;5033551;28;20041;-65
2020/12/25 13:13:50;;;;;;;319.17;287.15;;;;;;;;;;5033850;28;20461;-65
2020/12/25 13:16:23;;;;;;;366.05;332.45;;;;;;;;;;5033307;28;20439;-64
2020/12/25 13:18:49;;;;;;;351.30;318.15;;;;;;;;;;5033458;28;20171;-64
2020/12/25 13:21:22;;;;;;;335.30;303.08;;;;;;;;;;5033703;28;20104;-63
2020/12/25 13:23:48;;;;;;;353.30;320.02;;;;;;;;;;5033703;28;20036;-64
2020/12/25 13:26:14;;;;;;;375.05;340.80;;;;;;;;;;5034262;28;20033;-63
2020/12/25 13:28:40;;;;;;;354.38;321.17;;;;;;;;;;5034076;28;21239;-65
2020/12/25 13:31:06;;;;;;;357.50;324.05;;;;;;;;;;5033725;28;20037;-64
2020/12/25 13:33:33;;;;;;;343.35;309.98;;;;;;;;;;5032974;28;20025;-64
2020/12/25 13:35:59;;;;;;;364.08;330.67;;;;;;;;;;5033321;28;20070;-63
2020/12/25 13:38:25;;;;;;;327.58;295.02;;;;;;;;;;5033644;28;20025;-63
2020/12/25 13:40:51;;;;;;;340.70;307.98;;;;;;;;;;5033085;28;20509;-64
2020/12/25 13:43:17;;;;;;;363.77;330.23;;;;;;;;;;5033811;28;20033;-65
2020/12/25 13:45:44;;;;;;;337.45;304.98;;;;;;;;;;5032829;28;21037;-66
2020/12/25 13:48:10;;;;;;;327.67;295.40;;;;;;;;;;5033706;28;20041;-65